createdAt,value
2023-02-02T05:35:57.781Z,98298.56
2023-02-02T05:40:59.488Z,98308.16
2023-02-02T05:46:01.715Z,98311.25
2023-02-02T05:51:04.818Z,98297.41
2023-02-02T05:56:06.713Z,98295.28
2023-02-02T06:01:09.674Z,98290.28
2023-02-02T06:06:11.271Z,98293.72
2023-02-02T06:11:15.918Z,98299.03
2023-02-02T06:16:17.548Z,98298.41
2023-02-02T06:21:20.177Z,98300.19
2023-02-02T06:26:21.898Z,98312.97
2023-02-02T06:31:24.146Z,98314.69
2023-02-02T06:36:27.989Z,98325.75
2023-02-02T06:41:29.901Z,98335.28
2023-02-02T06:46:31.688Z,98326.44
2023-02-02T06:51:33.457Z,98352.41
2023-02-02T06:56:35.172Z,98348.88
2023-02-02T07:01:36.891Z,98350.97
2023-02-02T07:06:39.887Z,98337.59
2023-02-02T07:11:43.978Z,98323.41
2023-02-02T07:16:47.201Z,98335.78
2023-02-02T07:21:48.843Z,98330.50
2023-02-02T07:26:50.482Z,98340.25
2023-02-02T07:31:52.225Z,98350.66
2023-02-02T07:36:53.915Z,98341.09
2023-02-02T07:41:55.628Z,98357.50
2023-02-02T07:46:57.354Z,98356.47
2023-02-02T07:51:59.122Z,98336.22
2023-02-02T07:57:02.240Z,98345.50
2023-02-02T08:02:03.898Z,98311.38
2023-02-02T08:07:06.028Z,98363.41
2023-02-02T08:12:07.805Z,98371.31
2023-02-02T08:17:09.706Z,98372.28
2023-02-02T08:22:11.531Z,98370.31
2023-02-02T08:27:13.293Z,98372.03
2023-02-02T08:32:15.179Z,98370.38
2023-02-02T08:37:16.989Z,98360.31
2023-02-02T08:42:18.843Z,98360.84
2023-02-02T08:47:20.636Z,98344.78
2023-02-02T08:52:24.257Z,98371.47
2023-02-02T08:57:28.855Z,98366.97
2023-02-02T09:02:30.762Z,98368.06
2023-02-02T09:07:32.662Z,98368.69
2023-02-02T09:12:34.423Z,98380.06
2023-02-02T09:17:36.555Z,98372.00
2023-02-02T09:22:38.145Z,98378.94
2023-02-02T09:27:41.264Z,98388.75
2023-02-02T09:32:43.148Z,98400.91
2023-02-02T09:37:45.532Z,98408.00
2023-02-02T09:42:52.895Z,98425.44
2023-02-02T09:48:24.829Z,98392.19
2023-02-02T09:53:33.872Z,98404.91
2023-02-02T09:58:45.707Z,98396.31
2023-02-02T10:03:58.832Z,98419.75
2023-02-02T10:09:17.703Z,98433.31
2023-02-02T10:14:28.089Z,98417.59
2023-02-02T10:19:31.400Z,98421.06
2023-02-02T10:24:36.005Z,98423.72
2023-02-02T10:29:48.585Z,98434.69
2023-02-02T10:35:12.927Z,98430.31
2023-02-02T10:40:49.789Z,98428.47
2023-02-02T10:45:53.165Z,98434.69
2023-02-02T10:51:00.052Z,98426.31
2023-02-02T10:56:13.903Z,98433.75
2023-02-02T11:01:18.300Z,98439.03
2023-02-02T11:06:38.363Z,98430.75
2023-02-02T11:11:42.614Z,98436.75
2023-02-02T11:16:46.149Z,98450.63
2023-02-02T11:21:54.844Z,98434.63
2023-02-02T11:27:00.766Z,98446.97
2023-02-02T11:32:21.671Z,98430.47
2023-02-02T11:37:23.750Z,98447.47
2023-02-02T11:42:27.314Z,98448.94
2023-02-02T11:47:33.214Z,98453.28
2023-02-02T11:52:34.958Z,98443.53
2023-02-02T11:57:37.028Z,98451.53
2023-02-02T12:02:47.030Z,98440.78
2023-02-02T12:07:49.149Z,98440.53
2023-02-02T12:12:50.794Z,98443.19
2023-02-02T12:18:18.436Z,98452.63
2023-02-02T12:23:57.410Z,98452.53
2023-02-02T12:29:17.317Z,98442.50
2023-02-02T12:34:21.725Z,98448.03
2023-02-02T12:40:01.009Z,98443.22
2023-02-02T12:45:23.566Z,98432.88
2023-02-02T12:50:45.522Z,98441.69
2023-02-02T12:55:56.901Z,98437.72
2023-02-02T13:01:22.978Z,98412.75
2023-02-02T13:06:52.482Z,98452.59
2023-02-02T13:12:01.106Z,98443.59
2023-02-02T13:17:12.933Z,98452.19
2023-02-02T13:22:20.129Z,98465.03
2023-02-02T13:27:23.131Z,98453.56
2023-02-02T13:32:34.674Z,98448.81
2023-02-02T13:37:40.184Z,98454.75
2023-02-02T13:42:58.199Z,98455.28
2023-02-02T13:48:30.212Z,98463.16
2023-02-02T13:53:57.654Z,98454.81
2023-02-02T13:59:10.686Z,98456.59
2023-02-02T14:04:31.199Z,98479.56
2023-02-02T14:09:37.105Z,98481.06
2023-02-02T14:14:45.723Z,98486.34
2023-02-02T14:19:50.879Z,98485.72
2023-02-02T14:24:55.863Z,98488.66
2023-02-02T14:30:01.090Z,98480.75
2023-02-02T14:35:08.833Z,98510.56
2023-02-02T14:40:10.389Z,98504.19
2023-02-02T14:45:11.947Z,98515.31
2023-02-02T14:50:18.199Z,98520.59
2023-02-02T14:55:21.795Z,98515.06
2023-02-02T15:00:32.363Z,98523.59
2023-02-02T15:05:39.150Z,98540.22
2023-02-02T15:10:56.789Z,98537.63
2023-02-02T15:16:19.797Z,98535.56
2023-02-02T15:21:23.896Z,98546.66
2023-02-02T15:26:30.223Z,98560.75
2023-02-02T15:31:52.465Z,98571.50
2023-02-02T15:36:58.890Z,98573.22
2023-02-02T15:42:24.012Z,98576.56
2023-02-02T15:47:34.092Z,98579.34
2023-02-02T15:52:46.403Z,98588.59
2023-02-02T15:57:48.461Z,98603.75
2023-02-02T16:02:54.618Z,98607.56
2023-02-02T16:08:05.746Z,98616.69
2023-02-02T16:13:07.986Z,98634.47
2023-02-02T16:18:17.118Z,98646.94
2023-02-02T16:23:29.116Z,98642.50
2023-02-02T16:28:32.246Z,98654.13
2023-02-02T16:33:35.868Z,98676.94
2023-02-02T16:38:38.906Z,98675.38
2023-02-02T16:43:42.544Z,98688.03
2023-02-02T16:49:06.834Z,98684.69
2023-02-02T16:54:09.103Z,98713.03
2023-02-02T16:59:26.644Z,98717.75
2023-02-02T17:04:31.688Z,98723.03
2023-02-02T17:09:41.111Z,98737.47
2023-02-02T17:14:57.107Z,98743.34
2023-02-02T17:19:59.040Z,98747.69
2023-02-02T17:25:00.971Z,98758.34
2023-02-02T17:30:04.581Z,98768.97
2023-02-02T17:35:17.030Z,98777.72
2023-02-02T17:40:21.193Z,98781.84
2023-02-02T17:45:28.646Z,98790.91
2023-02-02T17:50:31.843Z,98797.13
2023-02-02T17:55:38.074Z,98791.72
2023-02-02T18:00:40.128Z,98799.06
2023-02-02T18:05:43.534Z,98816.16
2023-02-02T18:10:45.821Z,98809.38
2023-02-02T18:15:49.039Z,98822.13
2023-02-02T18:20:51.010Z,98807.25
2023-02-02T18:25:53.040Z,98802.09
2023-02-02T18:30:55.511Z,98809.94
2023-02-02T18:35:57.170Z,98804.66
2023-02-02T18:40:59.028Z,98807.25
2023-02-02T18:46:04.458Z,98803.59
2023-02-02T18:51:18.111Z,98793.91
2023-02-02T18:56:19.924Z,98813.66
2023-02-02T19:01:26.222Z,98827.78
2023-02-02T19:06:46.441Z,98827.16
2023-02-02T19:11:50.441Z,98837.38
2023-02-02T19:16:54.530Z,98842.88
2023-02-02T19:21:58.445Z,98842.94
2023-02-02T19:27:00.280Z,98856.16
2023-02-02T19:32:09.499Z,98862.06
2023-02-02T19:37:25.043Z,98873.66
2023-02-02T19:42:28.444Z,98882.28
2023-02-02T19:47:33.656Z,98870.75
2023-02-02T19:52:35.613Z,98902.50
2023-02-02T19:57:38.508Z,98872.09
2023-02-02T20:03:05.433Z,98908.69
2023-02-02T20:08:19.336Z,98906.13
2023-02-02T20:13:22.420Z,98928.38
2023-02-02T20:18:27.892Z,98926.09
2023-02-02T20:23:29.410Z,98949.69
2023-02-02T20:28:41.700Z,98942.06
2023-02-02T20:33:48.168Z,98957.03
2023-02-02T20:38:49.789Z,98962.19
2023-02-02T20:43:51.406Z,98968.84
2023-02-02T20:48:53.033Z,98975.97
2023-02-02T20:53:55.672Z,98975.97
2023-02-02T20:58:57.290Z,98982.09
2023-02-02T21:03:58.893Z,98986.53
2023-02-02T21:09:00.948Z,98986.63
2023-02-02T21:14:02.557Z,98998.78
2023-02-02T21:19:04.575Z,99003.25
2023-02-02T21:24:06.331Z,99006.03
2023-02-02T21:29:08.172Z,99006.03
2023-02-02T21:34:10.156Z,99007.63
2023-02-02T21:39:23.502Z,99010.53
2023-02-02T21:44:26.661Z,99006.09
2023-02-02T21:49:38.513Z,99021.13
2023-02-02T21:54:40.362Z,99018.59
2023-02-02T21:59:42.000Z,99034.22
2023-02-02T22:04:43.616Z,99027.22
2023-02-02T22:09:45.825Z,99041.97
2023-02-02T22:14:49.168Z,99017.91
